createdAt,value
2023-03-06T00:01:08.357Z,99809.66
2023-03-06T00:04:10.993Z,99801.66
2023-03-06T00:07:13.985Z,99798.41
2023-03-06T00:10:20.097Z,99792.09
2023-03-06T00:13:26.918Z,99805.84
2023-03-06T00:16:29.669Z,99803.59
2023-03-06T00:19:32.399Z,99794.69
2023-03-06T00:22:35.152Z,99791.19
2023-03-06T00:25:38.958Z,99787.22
2023-03-06T00:28:41.903Z,99787.03
2023-03-06T00:31:47.979Z,99792.50
2023-03-06T00:34:54.450Z,99787.72
2023-03-06T00:37:59.843Z,99755.38
2023-03-06T00:41:13.411Z,99787.87
2023-03-06T00:44:16.088Z,99789.06
2023-03-06T00:47:19.606Z,99783.31
2023-03-06T00:50:22.289Z,99780.72
2023-03-06T00:53:24.983Z,99789.22
2023-03-06T00:56:27.666Z,99785.66
2023-03-06T00:59:30.306Z,99779.37
2023-03-06T01:02:33.117Z,99775.81
2023-03-06T01:05:37.711Z,99777.59
2023-03-06T01:08:40.317Z,99769.41
2023-03-06T01:11:43.172Z,99771.69
2023-03-06T01:14:45.899Z,99770.19
2023-03-06T01:17:49.022Z,99751.88
2023-03-06T01:20:51.710Z,99756.66
2023-03-06T01:23:54.345Z,99753.94
2023-03-06T01:26:57.331Z,99752.19
2023-03-06T01:30:00.034Z,99752.59
2023-03-06T01:33:05.743Z,99740.97
2023-03-06T01:36:11.150Z,99743.84
2023-03-06T01:39:13.886Z,99745.47
2023-03-06T01:42:16.747Z,99741.09
2023-03-06T01:45:25.486Z,99742.87
2023-03-06T01:48:28.280Z,99740.16
2023-03-06T01:51:36.374Z,99739.63
2023-03-06T01:54:45.665Z,99740.31
2023-03-06T01:57:53.058Z,99727.91
2023-03-06T02:00:55.637Z,99731.38
2023-03-06T02:03:58.732Z,99730.59
2023-03-06T02:07:01.671Z,99730.88
2023-03-06T02:10:05.472Z,99731.28
2023-03-06T02:13:08.146Z,99724.56
2023-03-06T02:16:11.787Z,99716.34
2023-03-06T02:19:46.607Z,99719.63
2023-03-06T02:22:52.866Z,99709.75
2023-03-06T02:25:56.094Z,99712.75
2023-03-06T02:28:59.492Z,99712.88
2023-03-06T02:32:02.275Z,99712.19
2023-03-06T02:35:05.257Z,99710.69
2023-03-06T02:38:12.609Z,99700.78
2023-03-06T02:41:18.787Z,99706.41
2023-03-06T02:44:23.186Z,99702.16
2023-03-06T02:47:25.863Z,99696.69
2023-03-06T02:50:28.612Z,99699.28
2023-03-06T02:53:31.421Z,99699.69
2023-03-06T02:56:34.079Z,99699.28
2023-03-06T02:59:36.764Z,99697.09
2023-03-06T03:02:39.883Z,99697.09
2023-03-06T03:05:42.549Z,99696.72
2023-03-06T03:08:45.198Z,99704.94
2023-03-06T03:11:47.813Z,99711.00
2023-03-06T03:14:50.431Z,99710.97
2023-03-06T03:17:56.226Z,99706.31
2023-03-06T03:20:59.453Z,99714.69
2023-03-06T03:24:02.098Z,99701.53
2023-03-06T03:27:07.657Z,99711.94
2023-03-06T03:30:11.433Z,99687.03
2023-03-06T03:33:14.042Z,99699.19
2023-03-06T03:36:16.677Z,99704.69
2023-03-06T03:39:20.052Z,99699.34
2023-03-06T03:42:25.994Z,99707.56
2023-03-06T03:45:28.670Z,99688.81
2023-03-06T03:48:32.013Z,99686.47
2023-03-06T03:51:34.714Z,99690.88
2023-03-06T03:54:37.815Z,99692.06
2023-03-06T03:57:40.459Z,99685.22
2023-03-06T04:00:43.156Z,99686.31
2023-03-06T04:03:46.069Z,99674.00
2023-03-06T04:06:48.939Z,99694.69
2023-03-06T04:09:51.559Z,99691.41
2023-03-06T04:12:54.246Z,99694.16
2023-03-06T04:15:57.011Z,99680.72
2023-03-06T04:18:59.734Z,99685.94
2023-03-06T04:22:04.550Z,99689.22
2023-03-06T04:25:07.542Z,99684.97
2023-03-06T04:28:10.843Z,99684.28
2023-03-06T04:31:13.750Z,99682.94
2023-03-06T04:34:16.544Z,99680.59
2023-03-06T04:37:24.991Z,99678.00
2023-03-06T04:40:29.248Z,99677.03
2023-03-06T04:43:32.014Z,99675.53
2023-03-06T04:46:35.550Z,99673.06
2023-03-06T04:49:38.502Z,99675.53
2023-03-06T04:52:41.163Z,99675.66
2023-03-06T04:55:43.933Z,99671.44
2023-03-06T04:58:46.597Z,99669.09
2023-03-06T05:01:49.783Z,99662.94
2023-03-06T05:04:52.598Z,99661.56
2023-03-06T05:07:55.539Z,99661.72
2023-03-06T05:11:00.546Z,99664.72
2023-03-06T05:14:03.145Z,99656.91
2023-03-06T05:17:05.926Z,99659.06
2023-03-06T05:20:10.503Z,99657.56
2023-03-06T05:23:13.665Z,99647.03
2023-03-06T05:26:16.966Z,99650.19
2023-03-06T05:29:20.045Z,99654.16
2023-03-06T05:32:22.935Z,99643.47
2023-03-06T05:35:25.850Z,99649.63
2023-03-06T05:38:29.049Z,99652.09
2023-03-06T05:41:31.708Z,99651.41
2023-03-06T05:44:35.532Z,99640.31
2023-03-06T05:47:38.202Z,99647.03
2023-03-06T05:50:40.810Z,99640.06
2023-03-06T05:53:43.625Z,99646.22
2023-03-06T05:56:46.206Z,99649.75
2023-03-06T05:59:50.337Z,99655.66
2023-03-06T06:02:53.170Z,99653.31
2023-03-06T06:05:55.794Z,99647.16
2023-03-06T06:08:58.522Z,99648.81
2023-03-06T06:12:03.860Z,99655.94
2023-03-06T06:15:07.421Z,99658.81
2023-03-06T06:18:10.079Z,99667.03
2023-03-06T06:21:14.796Z,99668.81
2023-03-06T06:24:20.918Z,99663.72
2023-03-06T06:27:23.564Z,99654.44
2023-03-06T06:30:26.259Z,99659.75
2023-03-06T06:33:29.121Z,99647.16
2023-03-06T06:36:32.610Z,99658.84
2023-03-06T06:39:35.494Z,99672.25
2023-03-06T06:42:40.083Z,99677.19
2023-03-06T06:45:47.305Z,99672.53
2023-03-06T06:48:54.757Z,99665.13
2023-03-06T06:51:57.737Z,99684.16
2023-03-06T06:55:00.404Z,99681.16
2023-03-06T06:58:03.080Z,99677.44
2023-03-06T07:01:08.635Z,99672.25
2023-03-06T07:04:13.282Z,99674.41
2023-03-06T07:07:16.065Z,99675.66
2023-03-06T07:10:20.737Z,99671.13
2023-03-06T07:13:23.818Z,99667.28
2023-03-06T07:16:29.709Z,99671.13
2023-03-06T07:19:33.159Z,99648.09
2023-03-06T07:22:48.654Z,99667.81
2023-03-06T07:25:54.882Z,99661.88
2023-03-06T07:29:00.679Z,99664.59
2023-03-06T07:32:03.456Z,99670.72
2023-03-06T07:35:19.817Z,99672.38
2023-03-06T07:38:23.057Z,99672.91
2023-03-06T07:41:25.775Z,99678.53
2023-03-06T07:44:28.737Z,99681.97
2023-03-06T07:47:31.523Z,99681.53
2023-03-06T07:50:35.252Z,99671.94
2023-03-06T07:53:38.281Z,99686.50
2023-03-06T07:56:40.933Z,99680.03
2023-03-06T07:59:43.539Z,99685.25
2023-03-06T08:02:47.008Z,99683.91
2023-03-06T08:05:49.814Z,99687.31
2023-03-06T08:08:53.956Z,99679.50
2023-03-06T08:11:56.799Z,99678.41
2023-03-06T08:14:59.439Z,99676.47
2023-03-06T08:18:03.991Z,99681.00
2023-03-06T08:21:06.798Z,99674.44
2023-03-06T08:24:09.515Z,99678.69
2023-03-06T08:27:12.171Z,99677.31
2023-03-06T08:30:18.081Z,99661.22
2023-03-06T08:33:20.825Z,99646.00
2023-03-06T08:36:24.183Z,99663.25
2023-03-06T08:39:26.851Z,99660.53
2023-03-06T08:42:29.404Z,99653.06
2023-03-06T08:45:32.033Z,99652.78
2023-03-06T08:48:34.737Z,99658.31
2023-03-06T08:51:37.571Z,99658.63
2023-03-06T08:54:40.282Z,99665.00
2023-03-06T08:57:42.917Z,99660.88
2023-03-06T09:00:45.947Z,99663.28
2023-03-06T09:03:49.242Z,99647.47
2023-03-06T09:06:53.934Z,99650.75
2023-03-06T09:09:58.329Z,99644.44
2023-03-06T09:13:04.034Z,99643.25
2023-03-06T09:16:07.648Z,99638.25
2023-03-06T09:19:10.586Z,99638.31
2023-03-06T09:22:13.263Z,99630.28
2023-03-06T09:25:20.576Z,99631.84
2023-03-06T09:28:26.998Z,99631.25
2023-03-06T09:31:31.807Z,99628.50
2023-03-06T09:34:34.474Z,99627.87
2023-03-06T09:37:41.099Z,99623.94
2023-03-06T09:40:52.683Z,99625.66
2023-03-06T09:44:08.818Z,99627.47
2023-03-06T09:47:28.831Z,99636.03
2023-03-06T09:50:46.125Z,99637.41
2023-03-06T09:54:06.999Z,99630.16
2023-03-06T09:57:27.564Z,99627.78
2023-03-06T10:00:34.609Z,99622.47
2023-03-06T10:03:48.551Z,99616.88
2023-03-06T10:06:56.429Z,99619.47
2023-03-06T10:10:05.028Z,99606.91
2023-03-06T10:13:15.550Z,99610.34
2023-03-06T10:16:30.281Z,99600.91
2023-03-06T10:19:42.713Z,99606.28
2023-03-06T10:23:01.055Z,99606.88
2023-03-06T10:26:40.100Z,99598.09
2023-03-06T10:30:06.948Z,99600.88
2023-03-06T10:33:36.565Z,99598.31
2023-03-06T10:36:42.407Z,99595.03
2023-03-06T10:39:50.244Z,99591.50
2023-03-06T10:43:10.624Z,99563.97
2023-03-06T10:46:30.460Z,99588.75
2023-03-06T10:49:37.535Z,99582.03
2023-03-06T10:52:40.356Z,99578.31
2023-03-06T10:55:51.636Z,99565.69
2023-03-06T10:59:23.147Z,99567.03
2023-03-06T11:02:30.238Z,99568.34
2023-03-06T11:05:33.014Z,99557.06
2023-03-06T11:08:39.201Z,99543.94
2023-03-06T11:11:42.222Z,99542.91
2023-03-06T11:14:45.022Z,99544.19
2023-03-06T11:17:57.904Z,99536.53
2023-03-06T11:21:07.386Z,99538.78
2023-03-06T11:24:17.046Z,99529.03
2023-03-06T11:27:34.642Z,99533.50
2023-03-06T11:30:47.824Z,99516.66
2023-03-06T11:34:09.657Z,99525.25
2023-03-06T11:37:23.200Z,99516.06
2023-03-06T11:40:45.252Z,99511.06
2023-03-06T11:44:04.647Z,99510.44
2023-03-06T11:47:42.877Z,99504.56
2023-03-06T11:50:53.265Z,99502.47
2023-03-06T11:53:59.222Z,99496.72
2023-03-06T11:57:05.970Z,99492.25
2023-03-06T12:00:14.240Z,99485.28
2023-03-06T12:03:39.971Z,99479.25
2023-03-06T12:07:01.124Z,99468.25
2023-03-06T12:10:31.037Z,99458.53
2023-03-06T12:13:47.911Z,99457.72
2023-03-06T12:17:05.860Z,99449.31
2023-03-06T12:20:29.192Z,99445.31
2023-03-06T12:24:03.918Z,99446.16
2023-03-06T12:27:26.001Z,99443.88
2023-03-06T12:30:36.308Z,99453.03
2023-03-06T12:34:14.703Z,99442.50
2023-03-06T12:37:33.944Z,99440.19
2023-03-06T12:41:01.946Z,99439.63
2023-03-06T12:44:04.621Z,99437.37
2023-03-06T12:47:12.922Z,99438.22
2023-03-06T12:50:33.991Z,99432.66
2023-03-06T12:53:36.959Z,99431.38
2023-03-06T12:56:40.950Z,99433.00
2023-03-06T12:59:48.719Z,99418.47
2023-03-06T13:02:55.589Z,99417.97
2023-03-06T13:06:32.449Z,99412.91
2023-03-06T13:09:55.967Z,99416.06
2023-03-06T13:13:05.209Z,99413.72
2023-03-06T13:16:16.519Z,99407.84
2023-03-06T13:19:26.469Z,99409.34
2023-03-06T13:22:33.104Z,99415.00
2023-03-06T13:25:37.674Z,99403.59
2023-03-06T13:28:50.404Z,99399.50
2023-03-06T13:31:53.039Z,99409.28
2023-03-06T13:34:55.815Z,99402.28
2023-03-06T13:37:59.969Z,99397.03
2023-03-06T13:41:21.197Z,99394.75
2023-03-06T13:44:23.833Z,99390.00
2023-03-06T13:47:31.947Z,99384.75
2023-03-06T13:50:40.543Z,99377.81
2023-03-06T13:54:01.690Z,99386.94
2023-03-06T13:57:22.635Z,99374.91
2023-03-06T14:00:47.350Z,99364.53
2023-03-06T14:04:01.001Z,99367.69
2023-03-06T14:07:24.636Z,99371.13
2023-03-06T14:10:31.002Z,99366.41
2023-03-06T14:13:47.129Z,99363.69
2023-03-06T14:16:53.717Z,99364.31
2023-03-06T14:20:00.236Z,99358.25
2023-03-06T14:23:32.544Z,99353.31
2023-03-06T14:26:42.062Z,99347.78
2023-03-06T14:29:46.720Z,99351.03
2023-03-06T14:32:54.497Z,99349.41
2023-03-06T14:36:00.366Z,99357.72
2023-03-06T14:39:09.006Z,99347.59
2023-03-06T14:42:24.926Z,99346.13
2023-03-06T14:45:31.994Z,99342.16
2023-03-06T14:48:42.999Z,99341.19
2023-03-06T14:51:52.250Z,99346.78
2023-03-06T14:54:55.000Z,99338.09
2023-03-06T14:58:03.195Z,99350.69
2023-03-06T15:01:09.107Z,99345.09
2023-03-06T15:04:29.373Z,99337.75
2023-03-06T15:07:33.016Z,99334.44
2023-03-06T15:10:37.457Z,99327.91
2023-03-06T15:13:40.493Z,99329.81
2023-03-06T15:16:43.160Z,99326.88
2023-03-06T15:19:48.683Z,99330.28
2023-03-06T15:22:51.370Z,99323.47
2023-03-06T15:25:57.198Z,99327.41
2023-03-06T15:29:22.088Z,99328.75
2023-03-06T15:32:32.387Z,99324.31
2023-03-06T15:35:37.918Z,99316.16
2023-03-06T15:38:45.712Z,99317.97
2023-03-06T15:41:48.425Z,99319.94
2023-03-06T15:44:53.613Z,99323.69
2023-03-06T15:47:57.320Z,99308.97
2023-03-06T15:51:01.067Z,99315.06
2023-03-06T15:54:11.842Z,99317.84
2023-03-06T15:57:26.756Z,99317.19
2023-03-06T16:00:34.499Z,99323.41
2023-03-06T16:03:37.064Z,99318.84
2023-03-06T16:06:43.828Z,99327.53
2023-03-06T16:09:46.731Z,99322.13
2023-03-06T16:12:52.959Z,99318.69
2023-03-06T16:15:55.631Z,99329.31
2023-03-06T16:19:13.983Z,99325.41
2023-03-06T16:22:22.957Z,99327.53
2023-03-06T16:25:27.937Z,99325.44
2023-03-06T16:28:32.210Z,99337.06
2023-03-06T16:31:34.990Z,99333.31
2023-03-06T16:34:38.561Z,99332.00
2023-03-06T16:37:45.323Z,99336.59
2023-03-06T16:40:51.104Z,99333.44
2023-03-06T16:43:54.882Z,99328.06
2023-03-06T16:47:01.169Z,99330.19
2023-03-06T16:50:04.597Z,99327.91
2023-03-06T16:53:11.626Z,99333.81
2023-03-06T16:56:17.845Z,99326.78
2023-03-06T16:59:25.383Z,99321.56
2023-03-06T17:02:28.286Z,99308.16
2023-03-06T17:05:34.485Z,99309.94
2023-03-06T17:08:38.656Z,99301.78
2023-03-06T17:11:47.652Z,99310.28
2023-03-06T17:14:50.805Z,99316.31
2023-03-06T17:17:53.610Z,99324.97
2023-03-06T17:20:56.719Z,99316.63
2023-03-06T17:24:02.561Z,99306.53
2023-03-06T17:27:05.359Z,99304.72
2023-03-06T17:30:08.587Z,99320.22
2023-03-06T17:33:12.456Z,99324.94
2023-03-06T17:36:16.396Z,99326.91
2023-03-06T17:39:23.159Z,99324.63
2023-03-06T17:42:26.000Z,99323.44
2023-03-06T17:45:29.698Z,99329.81
2023-03-06T17:48:35.603Z,99335.84
2023-03-06T17:51:39.854Z,99326.03
2023-03-06T17:54:42.766Z,99321.94
2023-03-06T17:57:45.415Z,99332.19
2023-03-06T18:00:48.539Z,99331.37
2023-03-06T18:03:51.511Z,99332.50
2023-03-06T18:06:54.843Z,99332.81
2023-03-06T18:10:07.110Z,99339.97
2023-03-06T18:13:10.770Z,99334.84
2023-03-06T18:16:15.868Z,99332.06
2023-03-06T18:19:18.626Z,99347.00
2023-03-06T18:22:24.761Z,99340.00
2023-03-06T18:25:33.629Z,99343.59
2023-03-06T18:28:36.536Z,99326.09
2023-03-06T18:31:41.207Z,99354.03
2023-03-06T18:34:44.199Z,99338.00
2023-03-06T18:37:46.928Z,99328.97
2023-03-06T18:40:49.917Z,99330.31
2023-03-06T18:43:56.702Z,99335.16
2023-03-06T18:46:59.340Z,99334.34
2023-03-06T18:50:04.880Z,99331.47
2023-03-06T18:53:08.385Z,99333.47
2023-03-06T18:56:16.992Z,99329.16
2023-03-06T18:59:20.517Z,99321.97
2023-03-06T19:02:23.840Z,99327.19
2023-03-06T19:05:26.718Z,99318.03
2023-03-06T19:08:30.875Z,99329.75
2023-03-06T19:11:35.213Z,99328.13
2023-03-06T19:14:38.347Z,99317.19
2023-03-06T19:17:41.250Z,99327.63
2023-03-06T19:20:44.936Z,99337.19
2023-03-06T19:23:48.746Z,99324.94
2023-03-06T19:26:51.778Z,99320.03
2023-03-06T19:29:54.811Z,99325.41
2023-03-06T19:32:57.910Z,99322.72
2023-03-06T19:36:02.537Z,99323.34
2023-03-06T19:39:07.161Z,99329.47
2023-03-06T19:42:12.846Z,99328.31
2023-03-06T19:45:17.265Z,99332.34
2023-03-06T19:48:22.582Z,99322.69
2023-03-06T19:51:27.007Z,99338.53
2023-03-06T19:54:34.253Z,99338.91
2023-03-06T19:57:37.318Z,99348.44
2023-03-06T20:00:41.739Z,99347.56
2023-03-06T20:03:45.085Z,99347.13
2023-03-06T20:06:50.634Z,99344.78
2023-03-06T20:09:54.580Z,99347.66
2023-03-06T20:12:57.614Z,99358.38
2023-03-06T20:16:04.350Z,99361.56
2023-03-06T20:19:08.808Z,99371.66
2023-03-06T20:22:12.916Z,99370.41
2023-03-06T20:25:16.170Z,99378.94
2023-03-06T20:28:22.435Z,99382.50
2023-03-06T20:31:28.525Z,99385.09
2023-03-06T20:34:31.493Z,99388.53
2023-03-06T20:37:34.631Z,99386.47
2023-03-06T20:40:42.209Z,99386.50
2023-03-06T20:43:45.618Z,99380.62
2023-03-06T20:46:48.912Z,99385.28
2023-03-06T20:49:51.957Z,99389.25
2023-03-06T20:52:56.308Z,99385.81
2023-03-06T20:55:59.324Z,99385.00
2023-03-06T20:59:02.730Z,99389.91
2023-03-06T21:02:10.405Z,99386.63
2023-03-06T21:05:16.530Z,99393.34
2023-03-06T21:08:19.526Z,99367.13
2023-03-06T21:11:22.383Z,99392.94
2023-03-06T21:14:25.069Z,99401.47
2023-03-06T21:17:30.370Z,99402.31
2023-03-06T21:20:33.884Z,99401.22
2023-03-06T21:23:37.794Z,99403.41
2023-03-06T21:26:40.790Z,99404.91
2023-03-06T21:29:44.888Z,99402.75
2023-03-06T21:32:47.721Z,99405.47
2023-03-06T21:35:50.497Z,99412.19
2023-03-06T21:38:55.058Z,99400.41
2023-03-06T21:41:57.921Z,99394.25
2023-03-06T21:45:00.514Z,99402.47
2023-03-06T21:48:03.373Z,99400.16
2023-03-06T21:51:21.050Z,99398.00
2023-03-06T21:54:27.245Z,99397.63
2023-03-06T21:57:30.423Z,99410.06
2023-03-06T22:00:36.497Z,99398.81
2023-03-06T22:03:42.065Z,99390.91
2023-03-06T22:06:48.212Z,99397.31
2023-03-06T22:09:53.807Z,99402.53
2023-03-06T22:12:56.534Z,99406.22
2023-03-06T22:15:59.197Z,99409.75
2023-03-06T22:19:01.961Z,99404.03
2023-03-06T22:22:05.004Z,99408.66
2023-03-06T22:25:08.260Z,99422.88
2023-03-06T22:28:10.959Z,99414.94
2023-03-06T22:31:16.645Z,99412.03
2023-03-06T22:34:19.264Z,99415.34
2023-03-06T22:37:25.080Z,99416.00
2023-03-06T22:40:27.844Z,99416.13
2023-03-06T22:43:30.964Z,99418.16
2023-03-06T22:46:33.883Z,99414.87
2023-03-06T22:49:37.991Z,99420.59
2023-03-06T22:52:40.976Z,99411.31
2023-03-06T22:55:44.027Z,99411.28
2023-03-06T22:58:47.438Z,99421.87
2023-03-06T23:01:50.182Z,99415.31
2023-03-06T23:04:53.524Z,99415.13
2023-03-06T23:07:56.193Z,99413.87
2023-03-06T23:10:58.846Z,99414.06
2023-03-06T23:14:01.807Z,99422.37
2023-03-06T23:17:05.019Z,99417.78
2023-03-06T23:20:10.316Z,99413.22
2023-03-06T23:23:13.047Z,99415.78
2023-03-06T23:26:16.192Z,99410.03
2023-03-06T23:29:19.011Z,99415.59
2023-03-06T23:32:24.780Z,99414.84
2023-03-06T23:35:27.407Z,99401.81
2023-03-06T23:38:30.466Z,99425.56
2023-03-06T23:41:33.424Z,99429.72
2023-03-06T23:44:36.238Z,99418.91
2023-03-06T23:47:38.799Z,99411.28
2023-03-06T23:50:44.573Z,99405.78
2023-03-06T23:53:48.375Z,99409.56
2023-03-06T23:56:51.016Z,99406.03
2023-03-06T23:59:53.647Z,99401.59
